RYR96E LRTM-EGSS
Flight info
| Callsign | RYR96E |
|---|---|
| Flight time | N/A |
| Altitude | 38000 |
| Route | ELROM Y572 BUDOP DCT ALAMU DCT MAREG DCT LAMSI DCT TENLO DCT BOMBI DCT PODIP DCT TORNU DCT BREDA DCT ODVIL DCT ABNED L980 LOGAN |
| Aircraft | B738/M-SDE2E3FGHIRWXY/LB1 |
Departure
| Time | 2026-04-24 19:31 |
|---|---|
| Airport | Târgu Mureş Transilvania International Airport (LRTM) |
Arrival
| Time | N/A |
|---|---|
| Airport | London Stansted Airport (EGSS) |
| Time | Latitude | Longitude | Altitude | Speed | Heading |
|---|---|---|---|---|---|
| 2026-04-24 19:07 | 46.46782 | 24.42298 | 983 ft | 0 kts | 282° |
| 2026-04-24 19:28 | 46.46783 | 24.42294 | 971 ft | 2 kts | 283° |
| 2026-04-24 19:28 | 46.46810 | 24.42266 | 974 ft | 8 kts | 351° |
| 2026-04-24 19:28 | 46.46836 | 24.42296 | 979 ft | 4 kts | 75° |
| 2026-04-24 19:29 | 46.46865 | 24.42455 | 971 ft | 11 kts | 74° |
| 2026-04-24 19:29 | 46.46885 | 24.42527 | 976 ft | 6 kts | 48° |
| 2026-04-24 19:29 | 46.46898 | 24.42532 | 971 ft | 2 kts | 342° |
| 2026-04-24 19:30 | 46.46948 | 24.42509 | 981 ft | 12 kts | 344° |
| 2026-04-24 19:30 | 46.47003 | 24.42487 | 975 ft | 6 kts | 332° |
| 2026-04-24 19:30 | 46.47006 | 24.42435 | 972 ft | 6 kts | 253° |
| 2026-04-24 19:30 | 46.46965 | 24.42222 | 967 ft | 56 kts | 254° |
| 2026-04-24 19:31 | 46.46790 | 24.41329 | 967 ft | 128 kts | 254° |
| 2026-04-24 19:31 | 46.46501 | 24.39842 | 1290 ft | 158 kts | 253° |
| 2026-04-24 19:31 | 46.46204 | 24.38315 | 2148 ft | 163 kts | 257° |
| 2026-04-24 19:31 | 46.45891 | 24.36714 | 2929 ft | 171 kts | 258° |
| 2026-04-24 19:32 | 46.45537 | 24.34899 | 3320 ft | 204 kts | 257° |
| 2026-04-24 19:32 | 46.45121 | 24.32791 | 3590 ft | 230 kts | 257° |
| 2026-04-24 19:32 | 46.44663 | 24.30461 | 3975 ft | 252 kts | 259° |
| 2026-04-24 19:32 | 46.44693 | 24.27935 | 4803 ft | 253 kts | 289° |
| 2026-04-24 19:33 | 46.45549 | 24.25780 | 5850 ft | 250 kts | 306° |
| 2026-04-24 19:33 | 46.46189 | 24.23390 | 6755 ft | 258 kts | 279° |
| 2026-04-24 19:33 | 46.46348 | 24.20772 | 7627 ft | 263 kts | 276° |
| 2026-04-24 19:33 | 46.46497 | 24.18137 | 8512 ft | 267 kts | 276° |
| 2026-04-24 19:34 | 46.46669 | 24.15435 | 9393 ft | 272 kts | 276° |
| 2026-04-24 19:34 | 46.46867 | 24.12671 | 10237 ft | 278 kts | 277° |
| 2026-04-24 19:34 | 46.47092 | 24.09784 | 10576 ft | 302 kts | 278° |
| 2026-04-24 19:34 | 46.47262 | 24.07722 | 10711 ft | 319 kts | 278° |
| 2026-04-24 19:35 | 46.47547 | 24.04405 | 10964 ft | 341 kts | 278° |
| 2026-04-24 19:35 | 46.47855 | 24.00931 | 11537 ft | 351 kts | 279° |
| 2026-04-24 19:35 | 46.48175 | 23.97390 | 12289 ft | 356 kts | 279° |
| 2026-04-24 19:35 | 46.48502 | 23.93815 | 13055 ft | 361 kts | 280° |
| 2026-04-24 19:36 | 46.48839 | 23.90173 | 13794 ft | 366 kts | 281° |
| 2026-04-24 19:36 | 46.49210 | 23.86517 | 14460 ft | 369 kts | 284° |
| 2026-04-24 19:36 | 46.49932 | 23.83043 | 15184 ft | 368 kts | 292° |
| 2026-04-24 19:36 | 46.50822 | 23.79555 | 15958 ft | 369 kts | 294° |
| 2026-04-24 19:37 | 46.51737 | 23.76059 | 16676 ft | 371 kts | 294° |
| 2026-04-24 19:37 | 46.52660 | 23.72540 | 17355 ft | 375 kts | 294° |
| 2026-04-24 19:37 | 46.53588 | 23.68971 | 18049 ft | 378 kts | 294° |
| 2026-04-24 19:37 | 46.54499 | 23.65432 | 18669 ft | 381 kts | 294° |
| 2026-04-24 19:38 | 46.55426 | 23.61802 | 19245 ft | 384 kts | 294° |
| 2026-04-24 19:38 | 46.56351 | 23.58153 | 19837 ft | 387 kts | 294° |
| 2026-04-24 19:38 | 46.57284 | 23.54456 | 20424 ft | 390 kts | 294° |
| 2026-04-24 19:38 | 46.58219 | 23.50737 | 20995 ft | 392 kts | 294° |
| 2026-04-24 19:39 | 46.59160 | 23.46987 | 21536 ft | 396 kts | 294° |
| 2026-04-24 19:39 | 46.60105 | 23.43211 | 22065 ft | 399 kts | 294° |
| 2026-04-24 19:39 | 46.61056 | 23.39404 | 22599 ft | 402 kts | 294° |
| 2026-04-24 19:39 | 46.62014 | 23.35562 | 23138 ft | 405 kts | 294° |
| 2026-04-24 19:40 | 46.62974 | 23.31706 | 23651 ft | 408 kts | 294° |
| 2026-04-24 19:40 | 46.63931 | 23.27854 | 24067 ft | 410 kts | 294° |
| 2026-04-24 19:40 | 46.64901 | 23.23943 | 24525 ft | 412 kts | 294° |
| 2026-04-24 19:40 | 46.65876 | 23.20006 | 24961 ft | 414 kts | 293° |
| 2026-04-24 19:41 | 46.66851 | 23.16059 | 25386 ft | 416 kts | 294° |
| 2026-04-24 19:41 | 46.67833 | 23.12082 | 25801 ft | 418 kts | 294° |
| 2026-04-24 19:41 | 46.68817 | 23.08085 | 26198 ft | 421 kts | 294° |
| 2026-04-24 19:41 | 46.69808 | 23.04059 | 26563 ft | 423 kts | 294° |
| 2026-04-24 19:42 | 46.70802 | 23.00008 | 26949 ft | 426 kts | 294° |
| 2026-04-24 19:42 | 46.71799 | 22.95937 | 27335 ft | 428 kts | 293° |
| 2026-04-24 19:42 | 46.72801 | 22.91841 | 27710 ft | 429 kts | 293° |
| 2026-04-24 19:42 | 46.73807 | 22.87720 | 28058 ft | 432 kts | 293° |
| 2026-04-24 19:43 | 46.74815 | 22.83585 | 28403 ft | 434 kts | 293° |
| 2026-04-24 19:43 | 46.75825 | 22.79432 | 28727 ft | 436 kts | 293° |
| 2026-04-24 19:43 | 46.76843 | 22.75237 | 29064 ft | 438 kts | 293° |
| 2026-04-24 19:43 | 46.77860 | 22.71040 | 29400 ft | 440 kts | 293° |
| 2026-04-24 19:44 | 46.78882 | 22.66816 | 29772 ft | 441 kts | 293° |
| 2026-04-24 19:44 | 46.79885 | 22.62658 | 30224 ft | 439 kts | 293° |
| 2026-04-24 19:44 | 46.80890 | 22.58483 | 30650 ft | 437 kts | 293° |
| 2026-04-24 19:44 | 46.81895 | 22.54298 | 31005 ft | 436 kts | 293° |
| 2026-04-24 19:45 | 46.82913 | 22.50056 | 31314 ft | 437 kts | 293° |
| 2026-04-24 19:45 | 46.83904 | 22.45921 | 31638 ft | 436 kts | 293° |
| 2026-04-24 19:45 | 46.84897 | 22.41767 | 31983 ft | 435 kts | 294° |
| 2026-04-24 19:45 | 46.85891 | 22.37600 | 32329 ft | 434 kts | 294° |
| 2026-04-24 19:46 | 46.86882 | 22.33442 | 32646 ft | 434 kts | 294° |
| 2026-04-24 19:46 | 46.87876 | 22.29264 | 32985 ft | 433 kts | 294° |
| 2026-04-24 19:46 | 46.88865 | 22.25097 | 33301 ft | 433 kts | 294° |
| 2026-04-24 19:46 | 46.89850 | 22.20938 | 33625 ft | 432 kts | 294° |
| 2026-04-24 19:47 | 46.90830 | 22.16793 | 33964 ft | 432 kts | 294° |
| 2026-04-24 19:47 | 46.91811 | 22.12636 | 34238 ft | 431 kts | 294° |
| 2026-04-24 19:47 | 46.92788 | 22.08490 | 34520 ft | 431 kts | 294° |
| 2026-04-24 19:47 | 46.93763 | 22.04340 | 34791 ft | 430 kts | 294° |
| 2026-04-24 19:48 | 46.94733 | 22.00206 | 35050 ft | 430 kts | 294° |
| 2026-04-24 19:48 | 46.95691 | 21.96116 | 35332 ft | 429 kts | 294° |
| 2026-04-24 19:48 | 46.97635 | 21.87792 | 35871 ft | 428 kts | 294° |
| 2026-04-24 19:49 | 46.99542 | 21.79596 | 36370 ft | 428 kts | 294° |
| 2026-04-24 19:49 | 47.01453 | 21.71349 | 36881 ft | 426 kts | 294° |
| 2026-04-24 19:50 | 47.04295 | 21.59025 | 37641 ft | 424 kts | 294° |
| 2026-04-24 19:50 | 47.05234 | 21.54942 | 37867 ft | 424 kts | 294° |
| 2026-04-24 19:51 | 47.07119 | 21.46719 | 37985 ft | 425 kts | 294° |
| 2026-04-24 19:51 | 47.08056 | 21.42617 | 37994 ft | 424 kts | 294° |
| 2026-04-24 19:52 | 47.10857 | 21.30309 | 37996 ft | 423 kts | 294° |
| 2026-04-24 19:52 | 47.12699 | 21.22177 | 37987 ft | 422 kts | 294° |
| 2026-04-24 19:53 | 47.14543 | 21.14003 | 37990 ft | 422 kts | 294° |
| 2026-04-24 19:54 | 47.17303 | 21.01714 | 37991 ft | 422 kts | 294° |
| 2026-04-24 19:54 | 47.19133 | 20.93527 | 37993 ft | 422 kts | 294° |
| 2026-04-24 19:55 | 47.20651 | 20.86709 | 37987 ft | 422 kts | 293° |
| 2026-04-24 19:55 | 47.22783 | 20.77100 | 37992 ft | 423 kts | 293° |
| 2026-04-24 19:56 | 47.24604 | 20.68858 | 37991 ft | 423 kts | 293° |
| 2026-04-24 19:56 | 47.26420 | 20.60602 | 37993 ft | 424 kts | 293° |
| 2026-04-24 19:57 | 47.28230 | 20.52342 | 37993 ft | 424 kts | 293° |
| 2026-04-24 19:57 | 47.30024 | 20.44123 | 37994 ft | 425 kts | 293° |
| 2026-04-24 19:58 | 47.31827 | 20.35826 | 37992 ft | 425 kts | 293° |
| 2026-04-24 19:58 | 47.33625 | 20.27525 | 37994 ft | 425 kts | 292° |
| 2026-04-24 19:59 | 47.35416 | 20.19221 | 37990 ft | 425 kts | 292° |
| 2026-04-24 19:59 | 47.37200 | 20.10912 | 37994 ft | 425 kts | 292° |
| 2026-04-24 20:00 | 47.38982 | 20.02584 | 37990 ft | 425 kts | 292° |